Time;durP1;ratioP1;P1;durP2;ratioP2;P2;SDS_P1;SDS_P2;PMS_P1;PMS_P2;Temp;Humidity;BMP_temperature;BMP_pressure;BME280_temperature;BME280_humidity;BME280_pressure;Samples;Min_cycle;Max_cycle;Signal;HPM_P1;HPM_P2
2021/10/11 00:01:28;;;;;;;13.45;2.67;;;12.50;99.90;;;;;;4800027;29;20149;-88
2021/10/11 00:03:54;;;;;;;10.60;2.78;;;12.40;99.90;;;;;;4796276;29;20133;-88
2021/10/11 00:06:20;;;;;;;17.92;3.00;;;12.40;99.90;;;;;;4802926;29;20305;-88
2021/10/11 00:08:46;;;;;;;11.00;2.50;;;12.40;99.90;;;;;;4801701;29;20221;-88
2021/10/11 00:11:12;;;;;;;11.98;2.83;;;12.30;99.90;;;;;;4819370;29;20050;-89
2021/10/11 00:13:37;;;;;;;12.18;2.72;;;12.30;99.90;;;;;;4823269;29;20077;-89
2021/10/11 00:16:04;;;;;;;18.35;3.13;;;12.20;99.90;;;;;;4829153;29;20036;-88
2021/10/11 00:18:30;;;;;;;18.05;3.13;;;12.20;99.90;;;;;;4806682;29;20536;-90
2021/10/11 00:20:59;;;;;;;11.48;2.70;;;12.10;99.90;;;;;;4810969;29;20045;-89
2021/10/11 00:23:25;;;;;;;15.13;2.53;;;12.10;99.90;;;;;;4824148;29;20049;-89
2021/10/11 00:25:51;;;;;;;11.48;2.60;;;12.00;99.90;;;;;;4818806;29;20045;-87
2021/10/11 00:28:16;;;;;;;11.45;2.75;;;12.00;99.90;;;;;;4811712;29;20105;-88
2021/10/11 00:30:42;;;;;;;11.85;2.53;;;12.00;99.90;;;;;;4803271;29;20434;-88
2021/10/11 00:33:08;;;;;;;20.90;3.08;;;11.90;99.90;;;;;;4810795;29;20865;-88
2021/10/11 00:35:34;;;;;;;18.77;3.58;;;11.90;99.90;;;;;;4807399;29;20106;-87
2021/10/11 00:38:00;;;;;;;17.45;3.40;;;11.90;99.90;;;;;;4818841;29;20045;-88
2021/10/11 00:40:26;;;;;;;16.42;2.80;;;11.80;99.90;;;;;;4831034;29;20037;-87
2021/10/11 00:42:52;;;;;;;12.25;2.95;;;11.80;99.90;;;;;;4809383;29;20068;-88
2021/10/11 00:45:17;;;;;;;21.05;3.50;;;11.70;99.90;;;;;;4820156;29;20313;-87
2021/10/11 00:47:43;;;;;;;14.38;2.95;;;11.70;99.90;;;;;;4807824;29;20041;-87
2021/10/11 00:50:09;;;;;;;17.58;3.05;;;11.70;99.90;;;;;;4791696;29;20097;-88
2021/10/11 00:52:35;;;;;;;23.48;2.80;;;11.60;99.90;;;;;;4814286;29;20709;-88
2021/10/11 00:55:02;;;;;;;23.10;4.00;;;11.60;99.90;;;;;;4821503;29;20047;-88
2021/10/11 00:57:28;;;;;;;16.10;3.13;;;11.50;99.90;;;;;;4825916;29;20065;-88
2021/10/11 00:59:53;;;;;;;13.93;2.85;;;11.40;99.90;;;;;;4826116;29;20522;-86
2021/10/11 01:02:19;;;;;;;11.93;2.83;;;11.40;99.90;;;;;;4820377;29;20052;-88
2021/10/11 01:04:45;;;;;;;11.93;2.83;;;11.40;99.90;;;;;;4824818;29;20631;-88
2021/10/11 01:07:11;;;;;;;17.52;3.10;;;11.30;99.90;;;;;;4820951;29;20045;-89
2021/10/11 01:09:37;;;;;;;12.02;2.60;;;11.30;99.90;;;;;;4838414;29;20417;-88
2021/10/11 01:12:03;;;;;;;15.98;3.20;;;11.20;99.90;;;;;;4810319;29;20045;-89
2021/10/11 01:14:29;;;;;;;15.55;2.95;;;11.10;99.90;;;;;;4810724;29;20068;-89
2021/10/11 01:16:56;;;;;;;15.00;3.30;;;11.10;99.90;;;;;;4818856;29;20050;-88
2021/10/11 01:19:21;;;;;;;15.73;3.00;;;11.10;99.90;;;;;;4820201;29;20077;-88
2021/10/11 01:21:47;;;;;;;15.32;3.05;;;11.10;99.90;;;;;;4804734;29;20068;-88
2021/10/11 01:24:13;;;;;;;22.70;3.58;;;11.00;99.90;;;;;;4825330;29;20037;-89
2021/10/11 01:26:42;;;;;;;15.45;3.58;;;11.00;99.90;;;;;;4834756;29;20085;-89
2021/10/11 01:29:17;;;;;;;19.10;3.67;;;11.00;99.90;;;;;;4831943;29;20664;-88
2021/10/11 01:31:43;;;;;;;12.75;3.00;;;11.00;99.90;;;;;;4839415;29;20038;-87
2021/10/11 01:34:10;;;;;;;14.13;3.03;;;10.90;99.90;;;;;;4829869;29;20056;-89
2021/10/11 01:36:36;;;;;;;16.63;3.35;;;10.90;99.90;;;;;;4794716;29;20279;-89
2021/10/11 01:39:06;;;;;;;13.98;2.72;;;10.90;99.90;;;;;;4806722;29;20049;-89
2021/10/11 01:41:32;;;;;;;21.55;3.03;;;10.90;99.90;;;;;;4819281;29;20109;-88
2021/10/11 01:43:58;;;;;;;17.63;3.20;;;10.90;99.90;;;;;;4804091;29;20167;-88
2021/10/11 01:46:24;;;;;;;12.20;2.60;;;10.90;99.90;;;;;;4812585;29;20043;-88
2021/10/11 01:48:50;;;;;;;12.50;2.70;;;10.90;99.90;;;;;;4836205;29;20094;-87
2021/10/11 01:51:16;;;;;;;20.85;3.20;;;10.90;99.90;;;;;;4830624;29;20073;-88
2021/10/11 01:53:42;;;;;;;15.38;2.70;;;10.80;99.90;;;;;;4820265;29;20496;-86
2021/10/11 01:56:08;;;;;;;14.80;3.20;;;10.80;99.90;;;;;;4811086;29;20052;-87
2021/10/11 01:58:34;;;;;;;12.13;2.85;;;10.80;99.90;;;;;;4825326;29;20076;-89
2021/10/11 02:01:00;;;;;;;13.02;2.65;;;10.80;99.90;;;;;;4830949;29;20081;-88
2021/10/11 02:03:26;;;;;;;16.42;2.70;;;10.80;99.90;;;;;;4815566;29;20309;-89
2021/10/11 02:05:52;;;;;;;9.02;2.30;;;10.80;99.90;;;;;;4833294;29;20097;-88
2021/10/11 02:08:18;;;;;;;15.45;2.50;;;10.70;99.90;;;;;;4799257;29;20789;-88
2021/10/11 02:10:44;;;;;;;13.65;2.58;;;10.70;99.90;;;;;;4821475;29;20426;-88
2021/10/11 02:13:10;;;;;;;18.40;3.47;;;10.70;99.90;;;;;;4807811;29;20499;-88
2021/10/11 02:15:36;;;;;;;10.77;2.60;;;10.80;99.90;;;;;;4820610;29;20100;-87
2021/10/11 02:18:02;;;;;;;17.75;2.92;;;10.70;99.90;;;;;;4801267;29;20077;-89
2021/10/11 02:20:27;;;;;;;15.95;2.60;;;10.70;99.90;;;;;;4818703;29;20052;-90
2021/10/11 02:22:53;;;;;;;11.05;2.63;;;10.70;99.90;;;;;;4829083;29;20041;-90
2021/10/11 02:25:19;;;;;;;14.02;2.65;;;10.70;99.90;;;;;;4808985;29;20042;-90
2021/10/11 02:27:45;;;;;;;13.57;2.50;;;10.70;99.90;;;;;;4828539;29;20041;-90
2021/10/11 02:30:12;;;;;;;10.07;2.35;;;10.70;99.90;;;;;;4842915;29;20122;-90
2021/10/11 02:32:41;;;;;;;13.77;2.72;;;10.70;99.90;;;;;;4821796;29;20057;-90
2021/10/11 02:35:07;;;;;;;15.35;2.72;;;10.70;99.90;;;;;;4820427;29;20124;-90
2021/10/11 02:37:34;;;;;;;14.23;2.80;;;10.70;99.90;;;;;;4824087;29;20102;-90
2021/10/11 02:39:59;;;;;;;15.70;3.53;;;10.60;99.90;;;;;;4831374;29;20218;-91
2021/10/11 02:42:26;;;;;;;17.50;3.08;;;10.60;99.90;;;;;;4821715;29;20071;-91
2021/10/11 02:44:55;;;;;;;14.43;3.22;;;10.60;99.90;;;;;;4839991;29;20087;-89
2021/10/11 02:47:21;;;;;;;11.38;2.60;;;10.50;99.90;;;;;;4837121;29;20140;-90
2021/10/11 02:49:47;;;;;;;17.92;3.33;;;10.50;99.90;;;;;;4833385;29;20563;-90
2021/10/11 02:52:12;;;;;;;17.90;3.13;;;10.50;99.90;;;;;;4843915;29;20072;-90
2021/10/11 02:54:38;;;;;;;17.55;2.95;;;10.40;99.90;;;;;;4817010;29;20045;-91
2021/10/11 02:57:05;;;;;;;16.13;3.05;;;10.40;99.90;;;;;;4817988;29;20052;-90
2021/10/11 02:59:31;;;;;;;13.10;2.97;;;10.30;99.90;;;;;;4816459;29;20056;-90
2021/10/11 03:01:57;;;;;;;10.70;2.42;;;10.30;99.90;;;;;;4812155;29;20042;-90
2021/10/11 03:04:22;;;;;;;11.55;2.80;;;10.30;99.90;;;;;;4805873;29;20458;-90
2021/10/11 03:06:48;;;;;;;17.15;3.35;;;10.30;99.90;;;;;;4808594;29;20555;-90
2021/10/11 03:09:14;;;;;;;17.10;3.08;;;10.30;99.90;;;;;;4806863;29;20141;-90
2021/10/11 03:11:39;;;;;;;15.90;3.20;;;10.20;99.90;;;;;;4809133;29;20227;-90
2021/10/11 03:14:05;;;;;;;18.63;3.38;;;10.20;99.90;;;;;;4820954;29;20051;-91
2021/10/11 03:16:32;;;;;;;14.18;2.92;;;10.20;99.90;;;;;;4820371;29;20088;-90
2021/10/11 03:18:58;;;;;;;14.35;2.88;;;10.10;99.90;;;;;;4829058;29;20509;-90
2021/10/11 03:21:24;;;;;;;16.70;3.42;;;10.10;99.90;;;;;;4814339;29;20052;-90
2021/10/11 03:23:51;;;;;;;13.07;3.03;;;10.10;99.90;;;;;;4803023;29;20037;-90
2021/10/11 03:26:18;;;;;;;16.92;3.10;;;10.10;99.90;;;;;;4819134;29;20065;-90
2021/10/11 03:28:43;;;;;;;11.50;3.03;;;10.00;99.90;;;;;;4825537;29;20048;-90
2021/10/11 03:31:09;;;;;;;13.68;3.03;;;10.00;99.90;;;;;;4806368;29;20291;-89
2021/10/11 03:33:35;;;;;;;12.15;2.80;;;10.00;99.90;;;;;;4818479;29;20826;-90
2021/10/11 03:36:01;;;;;;;20.40;3.10;;;10.00;99.90;;;;;;4817293;29;20432;-90
2021/10/11 03:38:27;;;;;;;20.05;3.20;;;9.90;99.90;;;;;;4812911;29;20100;-90
2021/10/11 03:40:53;;;;;;;17.25;3.15;;;9.90;99.90;;;;;;4818511;29;20049;-90
2021/10/11 03:43:18;;;;;;;13.98;2.85;;;9.90;99.90;;;;;;4803488;29;20049;-90
2021/10/11 03:45:44;;;;;;;16.40;3.22;;;9.90;99.90;;;;;;4820321;29;20538;-90
2021/10/11 03:48:10;;;;;;;17.83;2.90;;;9.80;99.90;;;;;;4793436;29;20070;-90
2021/10/11 03:50:36;;;;;;;17.63;3.08;;;9.80;99.90;;;;;;4831633;29;20041;-91
2021/10/11 03:53:01;;;;;;;19.83;3.00;;;9.80;99.90;;;;;;4826683;29;20042;-90
2021/10/11 03:55:27;;;;;;;11.25;3.60;;;9.80;99.90;;;;;;4833801;29;20041;-89
2021/10/11 03:57:53;;;;;;;14.73;2.80;;;9.80;99.90;;;;;;4812045;29;20627;-89
2021/10/11 04:00:19;;;;;;;14.50;2.90;;;9.80;99.90;;;;;;4812741;29;20440;-89
2021/10/11 04:02:44;;;;;;;13.55;3.13;;;9.80;99.90;;;;;;4813106;29;20125;-90
2021/10/11 04:05:10;;;;;;;15.25;3.03;;;9.80;99.90;;;;;;4800785;29;20132;-89
2021/10/11 04:07:39;;;;;;;18.52;3.05;;;9.80;99.90;;;;;;4810305;29;20168;-90
2021/10/11 04:10:07;;;;;;;9.23;2.42;;;9.80;99.90;;;;;;4801705;29;20044;-90
2021/10/11 04:12:37;;;;;;;17.95;3.22;;;9.80;99.90;;;;;;4839079;29;20101;-90
2021/10/11 04:15:05;;;;;;;11.93;2.85;;;9.80;99.90;;;;;;4799961;29;20041;-90
2021/10/11 04:17:31;;;;;;;15.23;2.65;;;9.80;99.90;;;;;;4835854;29;20077;-90
2021/10/11 04:19:58;;;;;;;11.30;2.25;;;9.70;99.90;;;;;;4833096;29;20045;-90
2021/10/11 04:22:24;;;;;;;13.75;2.85;;;9.80;99.90;;;;;;4813294;29;20037;-89
2021/10/11 04:24:50;;;;;;;22.70;2.80;;;9.80;99.90;;;;;;4813514;29;20049;-89
2021/10/11 04:27:16;;;;;;;13.95;2.60;;;9.80;99.90;;;;;;4802389;29;20052;-90
2021/10/11 04:29:42;;;;;;;16.95;2.47;;;9.70;99.90;;;;;;4817296;29;20080;-89
2021/10/11 04:32:11;;;;;;;16.50;3.08;;;9.70;99.90;;;;;;4807984;29;20592;-88
2021/10/11 04:34:37;;;;;;;14.93;2.78;;;9.70;99.90;;;;;;4803072;29;20038;-89
2021/10/11 04:37:03;;;;;;;12.35;2.65;;;9.80;99.90;;;;;;4834675;29;20053;-89
2021/10/11 04:39:28;;;;;;;14.20;2.55;;;9.80;99.90;;;;;;4812429;29;20069;-88
2021/10/11 04:41:54;;;;;;;11.18;2.08;;;9.80;99.90;;;;;;4793645;29;20064;-89
2021/10/11 04:44:20;;;;;;;11.23;2.08;;;9.80;99.90;;;;;;4820244;29;20045;-89
2021/10/11 04:46:46;;;;;;;15.25;2.78;;;9.80;99.90;;;;;;4813735;29;20045;-89
2021/10/11 04:49:11;;;;;;;12.02;2.65;;;9.80;99.90;;;;;;4814030;29;20053;-89
2021/10/11 04:51:37;;;;;;;15.85;2.80;;;9.80;99.90;;;;;;4812239;29;20041;-88
2021/10/11 04:54:03;;;;;;;11.55;3.53;;;9.80;99.90;;;;;;4797071;29;20608;-89
2021/10/11 04:56:29;;;;;;;16.50;2.67;;;9.80;99.90;;;;;;4802202;29;20041;-89
2021/10/11 04:58:55;;;;;;;16.05;2.90;;;9.80;99.90;;;;;;4811486;29;20041;-89
2021/10/11 05:01:21;;;;;;;12.98;2.45;;;9.80;99.90;;;;;;4807633;29;20417;-89
2021/10/11 05:03:47;;;;;;;21.10;2.80;;;9.80;99.90;;;;;;4786348;29;20044;-89
2021/10/11 05:06:13;;;;;;;13.85;2.60;;;9.70;99.90;;;;;;4814091;29;20045;-90
2021/10/11 05:08:39;;;;;;;13.45;3.13;;;9.80;99.90;;;;;;4811443;29;20037;-89
2021/10/11 05:11:04;;;;;;;16.88;2.65;;;9.70;99.90;;;;;;4814677;29;20335;-89
2021/10/11 05:13:30;;;;;;;13.35;2.92;;;9.80;99.90;;;;;;4794921;29;20049;-89
2021/10/11 05:15:58;;;;;;;16.92;3.20;;;9.70;99.90;;;;;;4807075;29;20052;-90
2021/10/11 05:18:23;;;;;;;14.48;2.60;;;9.80;99.90;;;;;;4806300;29;20049;-90
2021/10/11 05:20:50;;;;;;;15.52;2.53;;;9.80;99.90;;;;;;4821185;29;20042;-89
2021/10/11 05:23:18;;;;;;;11.00;2.92;;;9.70;99.90;;;;;;4809047;29;20045;-90
2021/10/11 05:25:45;;;;;;;17.40;2.97;;;9.80;99.90;;;;;;4821958;29;20080;-88
2021/10/11 05:28:11;;;;;;;11.77;2.78;;;9.80;99.90;;;;;;4821386;29;20040;-89
2021/10/11 05:30:40;;;;;;;19.85;2.38;;;9.70;99.90;;;;;;4819444;29;20416;-88
2021/10/11 05:33:08;;;;;;;16.10;2.55;;;9.70;99.90;;;;;;4838827;29;20065;-89
2021/10/11 05:35:36;;;;;;;13.48;2.50;;;9.70;99.90;;;;;;4820247;29;20071;-90
2021/10/11 05:38:05;;;;;;;13.95;2.40;;;9.70;99.90;;;;;;4833247;29;20050;-90
2021/10/11 05:40:32;;;;;;;16.70;2.67;;;9.70;99.90;;;;;;4825344;29;20045;-89
2021/10/11 05:42:58;;;;;;;20.02;2.42;;;9.70;99.90;;;;;;4827492;29;20076;-89
2021/10/11 05:45:24;;;;;;;11.88;2.67;;;9.70;99.90;;;;;;4818786;29;20108;-90
2021/10/11 05:47:51;;;;;;;19.23;3.13;;;9.70;99.90;;;;;;4813851;29;20053;-89
2021/10/11 05:50:17;;;;;;;19.80;3.08;;;9.70;99.90;;;;;;4820072;29;20129;-88
2021/10/11 05:52:42;;;;;;;16.95;2.50;;;9.70;99.90;;;;;;4807545;29;20160;-88
2021/10/11 05:55:08;;;;;;;17.50;3.40;;;9.70;99.90;;;;;;4841718;29;20064;-88
2021/10/11 05:57:35;;;;;;;19.88;2.80;;;9.70;99.90;;;;;;4820203;29;20038;-89
2021/10/11 06:00:06;;;;;;;15.00;3.03;;;9.70;99.90;;;;;;4811135;29;20049;-89
2021/10/11 06:02:31;;;;;;;17.77;3.22;;;9.80;99.90;;;;;;4826916;29;20068;-88
2021/10/11 06:04:57;;;;;;;23.73;3.00;;;9.70;99.90;;;;;;4833578;29;20352;-89
2021/10/11 06:07:23;;;;;;;16.55;2.67;;;9.70;99.90;;;;;;4823284;29;20034;-88
2021/10/11 06:09:49;;;;;;;17.70;2.50;;;9.70;99.90;;;;;;4824456;29;20052;-89
2021/10/11 06:12:15;;;;;;;15.15;2.58;;;9.70;99.90;;;;;;4816978;29;20509;-88
2021/10/11 06:14:41;;;;;;;15.00;2.65;;;9.70;99.90;;;;;;4816105;29;20563;-88
2021/10/11 06:17:06;;;;;;;15.88;3.00;;;9.70;99.90;;;;;;4815280;29;20072;-88
2021/10/11 06:19:32;;;;;;;20.02;3.47;;;9.60;99.90;;;;;;4803570;29;20176;-89
2021/10/11 06:21:58;;;;;;;17.45;2.88;;;9.60;99.90;;;;;;4821965;29;20436;-88
2021/10/11 06:24:24;;;;;;;24.10;4.53;;;9.60;99.90;;;;;;4821914;29;20559;-90
2021/10/11 06:26:50;;;;;;;17.98;4.38;;;9.60;99.90;;;;;;4837012;29;20378;-89
2021/10/11 06:29:15;;;;;;;19.90;3.03;;;9.60;99.90;;;;;;4828137;29;20089;-88
2021/10/11 06:31:41;;;;;;;12.23;2.78;;;9.70;99.90;;;;;;4820134;29;20548;-89
2021/10/11 06:34:07;;;;;;;20.75;3.15;;;9.70;99.90;;;;;;4835778;29;20225;-89
2021/10/11 06:36:36;;;;;;;16.75;3.35;;;9.70;99.90;;;;;;4811202;29;20049;-89
2021/10/11 06:39:05;;;;;;;11.35;2.45;;;9.70;99.90;;;;;;4831907;29;20486;-89
2021/10/11 06:41:31;;;;;;;13.85;3.17;;;9.70;99.90;;;;;;4846439;29;20037;-89
2021/10/11 06:43:57;;;;;;;17.15;3.05;;;9.70;99.90;;;;;;4840599;29;20447;-88
2021/10/11 06:46:23;;;;;;;12.13;2.63;;;9.70;99.90;;;;;;4831812;29;20095;-89
2021/10/11 06:48:50;;;;;;;14.15;3.13;;;9.70;99.90;;;;;;4835397;29;20069;-89
2021/10/11 06:51:15;;;;;;;12.50;2.65;;;9.70;99.90;;;;;;4839889;29;20052;-89
2021/10/11 06:53:41;;;;;;;17.80;3.42;;;9.70;99.90;;;;;;4821798;29;20042;-89
2021/10/11 06:56:07;;;;;;;19.70;3.42;;;9.70;99.90;;;;;;4820010;29;20073;-90
2021/10/11 06:58:33;;;;;;;15.27;2.97;;;9.70;99.90;;;;;;4833624;29;20104;-89
2021/10/11 07:00:59;;;;;;;21.35;2.75;;;9.80;99.90;;;;;;4836274;29;20068;-89
2021/10/11 07:03:38;;;;;;;18.30;3.00;;;9.80;99.90;;;;;;4819303;29;20045;-90
2021/10/11 07:06:16;;;;;;;23.40;3.33;;;9.90;99.90;;;;;;4822930;29;20073;-90
2021/10/11 07:08:42;;;;;;;14.57;3.05;;;9.80;99.90;;;;;;4844218;29;20041;-89
2021/10/11 07:11:08;;;;;;;20.02;3.70;;;9.90;99.90;;;;;;4807300;29;20044;-89
2021/10/11 07:13:35;;;;;;;14.73;3.40;;;9.90;99.90;;;;;;4825455;29;20405;-90
2021/10/11 07:16:04;;;;;;;13.38;2.78;;;10.00;99.90;;;;;;4824958;29;20101;-89
2021/10/11 07:18:34;;;;;;;20.02;2.92;;;10.00;99.90;;;;;;4814499;29;20477;-90
2021/10/11 07:21:04;;;;;;;21.85;3.28;;;10.10;99.90;;;;;;4830726;29;21548;-90
2021/10/11 07:23:30;;;;;;;21.27;3.05;;;10.20;99.90;;;;;;4816638;29;20543;-89
2021/10/11 07:25:59;;;;;;;22.65;3.05;;;10.20;99.90;;;;;;4812332;29;20089;-89
2021/10/11 07:28:25;;;;;;;22.48;2.90;;;10.20;99.90;;;;;;4826786;29;20081;-90
2021/10/11 07:30:52;;;;;;;22.55;3.03;;;10.30;99.90;;;;;;4825847;29;20056;-90
2021/10/11 07:33:19;;;;;;;24.02;2.88;;;10.30;99.90;;;;;;4841354;29;20120;-88
2021/10/11 07:35:45;;;;;;;18.92;3.75;;;10.40;99.90;;;;;;4831024;29;20040;-89
2021/10/11 07:38:11;;;;;;;12.65;3.13;;;10.50;99.90;;;;;;4842880;29;20037;-89
2021/10/11 07:40:37;;;;;;;20.65;3.25;;;10.50;99.90;;;;;;4822343;29;20638;-89
2021/10/11 07:43:03;;;;;;;19.25;3.13;;;10.50;99.90;;;;;;4837707;29;20049;-90
2021/10/11 07:45:28;;;;;;;21.27;3.35;;;10.60;99.90;;;;;;4823256;29;20044;-88
2021/10/11 07:47:54;;;;;;;17.60;3.38;;;10.60;99.90;;;;;;4837853;29;20610;-90
2021/10/11 07:50:20;;;;;;;19.08;3.45;;;10.70;99.90;;;;;;4819033;29;20539;-90
2021/10/11 07:52:46;;;;;;;20.30;3.75;;;10.70;99.90;;;;;;4823486;29;21058;-89
2021/10/11 07:55:12;;;;;;;23.35;3.42;;;10.80;99.90;;;;;;4824621;29;20053;-90
2021/10/11 07:57:39;;;;;;;20.20;2.97;;;10.80;99.90;;;;;;4807307;29;20050;-89
2021/10/11 08:00:07;;;;;;;16.92;2.80;;;10.80;99.90;;;;;;4821862;29;20067;-91
2021/10/11 08:02:33;;;;;;;18.15;3.42;;;10.90;99.90;;;;;;4821192;29;20033;-89
2021/10/11 08:04:59;;;;;;;19.13;2.63;;;10.90;99.90;;;;;;4831248;29;20049;-90
2021/10/11 08:07:25;;;;;;;14.82;2.97;;;10.90;99.90;;;;;;4812419;29;20049;-90
2021/10/11 08:09:51;;;;;;;15.70;2.58;;;11.00;99.90;;;;;;4825994;29;20049;-89
2021/10/11 08:12:16;;;;;;;19.67;2.92;;;11.00;99.90;;;;;;4825759;29;20049;-90
2021/10/11 08:14:44;;;;;;;25.88;3.47;;;11.00;99.90;;;;;;4818989;29;20057;-89
2021/10/11 08:17:11;;;;;;;17.70;3.22;;;11.10;99.90;;;;;;4813597;29;20688;-88
2021/10/11 08:19:37;;;;;;;20.52;3.45;;;11.10;99.90;;;;;;4832345;29;20224;-91
2021/10/11 08:22:03;;;;;;;14.93;3.45;;;11.10;99.90;;;;;;4817222;29;20156;-90
2021/10/11 08:24:29;;;;;;;23.30;3.63;;;11.20;99.90;;;;;;4844808;29;20037;-88
2021/10/11 08:26:55;;;;;;;17.33;3.50;;;11.20;99.90;;;;;;4822169;29;20049;-89
2021/10/11 08:29:21;;;;;;;19.85;3.03;;;11.30;99.90;;;;;;4822354;29;20042;-90
2021/10/11 08:31:47;;;;;;;18.20;2.78;;;11.30;99.90;;;;;;4814491;29;20103;-89
2021/10/11 08:34:13;;;;;;;16.35;2.80;;;11.40;99.90;;;;;;4833656;29;20045;-89
2021/10/11 08:36:39;;;;;;;20.10;2.83;;;11.40;99.90;;;;;;4819591;29;20097;-89
2021/10/11 08:39:05;;;;;;;30.58;4.00;;;11.40;99.90;;;;;;4813426;29;20531;-89
2021/10/11 08:41:31;;;;;;;15.00;2.45;;;11.40;99.90;;;;;;4823462;29;20515;-89
2021/10/11 08:43:56;;;;;;;17.58;2.55;;;11.40;99.90;;;;;;4803912;29;20045;-90
2021/10/11 08:46:23;;;;;;;18.65;2.45;;;11.50;99.90;;;;;;4826097;29;20041;-89
2021/10/11 08:48:49;;;;;;;16.45;2.13;;;11.50;99.90;;;;;;4825936;29;20041;-90
2021/10/11 08:51:15;;;;;;;20.20;2.67;;;11.60;99.90;;;;;;4830201;29;20079;-89
2021/10/11 08:53:41;;;;;;;18.17;2.53;;;11.60;99.90;;;;;;4830196;29;20128;-90
2021/10/11 08:56:10;;;;;;;12.05;2.30;;;11.70;99.90;;;;;;4835443;29;20044;-89
2021/10/11 08:58:50;;;;;;;15.75;2.40;;;11.70;99.90;;;;;;4817704;29;20049;-89
2021/10/11 09:01:20;;;;;;;13.70;2.45;;;11.80;99.90;;;;;;4828333;29;20049;-87
2021/10/11 09:03:46;;;;;;;13.00;2.13;;;11.90;99.90;;;;;;4834833;29;20041;-89
2021/10/11 09:06:12;;;;;;;20.42;2.45;;;12.00;99.90;;;;;;4799948;29;22800;-90
2021/10/11 09:08:43;;;;;;;13.23;2.20;;;12.00;99.90;;;;;;4838088;29;20060;-88
2021/10/11 09:11:14;;;;;;;21.88;2.78;;;12.10;99.90;;;;;;4839021;29;20118;-87
2021/10/11 09:13:46;;;;;;;17.83;2.63;;;12.20;99.90;;;;;;4838914;29;20034;-88
2021/10/11 09:16:26;;;;;;;11.10;1.95;;;12.30;99.90;;;;;;4835077;29;20046;-90
2021/10/11 09:18:58;;;;;;;13.23;2.33;;;12.30;99.90;;;;;;4833200;29;20442;-86
2021/10/11 09:21:34;;;;;;;19.93;2.27;;;12.30;99.90;;;;;;4832453;29;20060;-87
2021/10/11 09:24:08;;;;;;;13.85;2.40;;;12.40;99.90;;;;;;4837228;29;21169;-85
2021/10/11 09:26:40;;;;;;;18.80;2.92;;;12.40;99.90;;;;;;4836453;29;20041;-88
2021/10/11 09:29:06;;;;;;;;;;;12.50;99.90;;;;;;4827093;29;20056;-85
2021/10/11 09:31:48;;;;;;;19.95;2.92;;;12.60;99.90;;;;;;4820114;29;19927;-85
2021/10/11 09:34:19;;;;;;;15.35;2.22;;;12.60;99.90;;;;;;4837620;29;20091;-84
2021/10/11 09:36:59;;;;;;;16.95;3.30;;;12.70;99.90;;;;;;4834722;29;20466;-85
2021/10/11 09:39:27;;;;;;;17.75;3.83;;;12.70;99.90;;;;;;4831413;29;20045;-85
2021/10/11 09:41:54;;;;;;;15.73;2.75;;;12.70;99.90;;;;;;4814427;29;20093;-86
2021/10/11 09:44:21;;;;;;;13.68;2.53;;;12.80;99.90;;;;;;4811161;29;20442;-85
2021/10/11 09:46:53;;;;;;;14.65;3.45;;;12.80;99.90;;;;;;4832005;29;20128;-84
2021/10/11 09:49:19;;;;;;;12.77;2.00;;;12.90;99.90;;;;;;4820761;29;20262;-88
2021/10/11 09:51:46;;;;;;;11.52;2.30;;;13.00;99.90;;;;;;4810415;29;20037;-89
2021/10/11 09:54:12;;;;;;;17.98;2.20;;;13.10;99.90;;;;;;4834664;29;20049;-88
2021/10/11 09:56:38;;;;;;;10.90;1.88;;;13.20;99.90;;;;;;4816959;29;20042;-90
2021/10/11 09:59:09;;;;;;;14.40;1.98;;;13.30;99.90;;;;;;4832833;29;20529;-89
2021/10/11 10:01:35;;;;;;;18.08;2.00;;;13.30;99.90;;;;;;4824475;29;20044;-88
2021/10/11 10:04:03;;;;;;;10.30;2.10;;;13.40;99.90;;;;;;4831436;29;20475;-88
2021/10/11 10:06:32;;;;;;;13.00;2.20;;;13.50;99.90;;;;;;4842144;29;20045;-85
2021/10/11 10:09:02;;;;;;;15.77;1.90;;;13.50;99.90;;;;;;4809552;29;20053;-88
2021/10/11 10:11:30;;;;;;;18.23;2.10;;;13.50;99.90;;;;;;4820223;29;20145;-88
2021/10/11 10:13:56;;;;;;;11.13;1.73;;;13.60;99.90;;;;;;4823196;29;20105;-89
2021/10/11 10:16:25;;;;;;;11.07;1.75;;;13.60;99.90;;;;;;4821891;29;20041;-89
2021/10/11 10:18:51;;;;;;;11.95;2.08;;;13.60;99.90;;;;;;4805564;29;20042;-89
2021/10/11 10:21:17;;;;;;;12.18;2.30;;;13.70;99.90;;;;;;4818968;29;20561;-87
2021/10/11 10:23:56;;;;;;;9.57;1.33;;;13.70;99.90;;;;;;4806851;29;20497;-88
2021/10/11 10:26:33;;;;;;;10.98;1.52;;;13.80;99.90;;;;;;4818110;29;20049;-88
2021/10/11 10:29:19;;;;;;;12.00;1.73;;;13.80;99.90;;;;;;4825211;29;20045;-88
2021/10/11 10:31:46;;;;;;;12.73;1.80;;;13.90;99.90;;;;;;4839460;29;20265;-89
2021/10/11 10:34:24;;;;;;;13.32;1.60;;;14.00;99.90;;;;;;4820230;29;20057;-91
2021/10/11 10:37:06;;;;;;;17.40;1.83;;;14.10;99.90;;;;;;4836445;29;20585;-86
2021/10/11 10:39:48;;;;;;;15.17;1.73;;;14.10;99.90;;;;;;4845584;29;20041;-89
2021/10/11 10:42:28;;;;;;;12.07;1.77;;;14.20;99.90;;;;;;4852063;29;20033;-88
2021/10/11 10:44:56;;;;;;;12.75;1.60;;;14.20;99.90;;;;;;4808101;29;21507;-90
2021/10/11 10:47:37;;;;;;;11.50;1.77;;;14.30;99.90;;;;;;4835351;29;20069;-88
2021/10/11 10:50:15;;;;;;;13.00;1.60;;;14.30;99.90;;;;;;4839494;29;20068;-90
2021/10/11 10:52:45;;;;;;;11.25;1.95;;;14.30;99.90;;;;;;4817593;29;21024;-88
2021/10/11 10:55:11;;;;;;;12.63;2.20;;;14.40;99.90;;;;;;4807540;29;20049;-90
2021/10/11 10:57:42;;;;;;;10.77;1.65;;;14.40;99.90;;;;;;4833412;29;20598;-87
2021/10/11 11:00:13;;;;;;;10.10;1.88;;;14.50;99.90;;;;;;4811656;29;20041;-90
2021/10/11 11:02:50;;;;;;;12.25;1.67;;;14.60;99.90;;;;;;4816440;29;20045;-93
2021/10/11 11:05:25;;;;;;;13.13;1.90;;;14.60;99.90;;;;;;4832819;29;20041;-88
2021/10/11 11:07:54;;;;;;;12.55;1.88;;;14.60;99.90;;;;;;4828853;29;20073;-88
2021/10/11 11:10:21;;;;;;;6.18;1.40;;;14.60;99.90;;;;;;4832722;29;20049;-88
2021/10/11 11:12:54;;;;;;;10.25;1.70;;;14.50;99.90;;;;;;4833601;29;20042;-89
2021/10/11 11:15:29;;;;;;;12.68;1.42;;;14.50;99.90;;;;;;4849625;29;20053;-87
2021/10/11 11:17:58;;;;;;;12.50;1.60;;;14.50;99.90;;;;;;4830444;29;20049;-86
2021/10/11 11:20:29;;;;;;;12.27;2.05;;;14.50;99.90;;;;;;4830813;29;20057;-85
2021/10/11 11:22:59;;;;;;;7.70;1.55;;;14.50;99.90;;;;;;4840487;29;20238;-86
2021/10/11 11:25:46;;;;;;;7.72;1.90;;;14.50;99.90;;;;;;4838788;29;20037;-85
2021/10/11 11:28:15;;;;;;;7.15;1.60;;;14.60;99.90;;;;;;4837418;29;20037;-87
2021/10/11 11:30:42;;;;;;;11.88;1.52;;;14.60;99.90;;;;;;4832402;29;20041;-85
2021/10/11 11:33:10;;;;;;;9.98;1.48;;;14.70;99.90;;;;;;4825193;29;20092;-85
2021/10/11 11:35:46;;;;;;;8.27;1.30;;;14.80;99.90;;;;;;4830693;29;20136;-87
2021/10/11 11:38:15;;;;;;;6.35;1.05;;;14.80;99.90;;;;;;4821942;29;20046;-87
2021/10/11 11:40:46;;;;;;;8.25;1.10;;;14.70;98.80;;;;;;4837811;29;20219;-86
2021/10/11 11:43:13;;;;;;;8.40;1.25;;;14.50;98.30;;;;;;4829214;29;20080;-91
2021/10/11 11:45:48;;;;;;;6.68;1.20;;;14.20;98.30;;;;;;4813043;29;21903;-90
2021/10/11 11:48:16;;;;;;;7.63;1.20;;;14.00;99.00;;;;;;4828936;29;20129;-88
2021/10/11 11:50:44;;;;;;;7.97;1.63;;;13.80;99.60;;;;;;4825545;29;20401;-87
2021/10/11 11:53:16;;;;;;;10.05;1.75;;;13.70;99.90;;;;;;4824532;29;22426;-88
2021/10/11 11:55:46;;;;;;;11.65;1.20;;;13.60;99.90;;;;;;4833302;29;20041;-87
2021/10/11 11:58:13;;;;;;;8.80;1.35;;;13.70;99.90;;;;;;4833872;29;20192;-88
2021/10/11 12:00:42;;;;;;;8.27;1.65;;;13.80;99.90;;;;;;4802060;29;20544;-88
2021/10/11 12:03:09;;;;;;;10.38;2.10;;;13.90;99.90;;;;;;4824445;29;20092;-87
2021/10/11 12:05:35;;;;;;;8.35;1.65;;;14.00;99.90;;;;;;4824845;29;20042;-86
2021/10/11 12:08:01;;;;;;;14.10;2.00;;;14.10;99.90;;;;;;4807357;29;20044;-87
2021/10/11 12:10:27;;;;;;;11.30;1.50;;;14.20;99.90;;;;;;4810783;29;20131;-87
2021/10/11 12:13:04;;;;;;;12.35;1.50;;;14.30;99.90;;;;;;4814025;29;20200;-88
2021/10/11 12:15:31;;;;;;;9.32;1.52;;;14.40;99.90;;;;;;4820016;29;20097;-88
2021/10/11 12:18:09;;;;;;;11.88;1.60;;;14.50;99.90;;;;;;4821377;29;20091;-87
2021/10/11 12:20:48;;;;;;;19.45;2.17;;;14.60;99.90;;;;;;4835745;29;20076;-89
2021/10/11 12:23:15;;;;;;;8.18;1.05;;;14.70;99.90;;;;;;4827435;29;20033;-87
2021/10/11 12:25:42;;;;;;;7.80;1.13;;;14.60;99.90;;;;;;4826198;29;20093;-87
2021/10/11 12:28:12;;;;;;;4.85;0.80;;;14.60;99.90;;;;;;4813632;29;20111;-88
2021/10/11 12:30:39;;;;;;;5.47;1.00;;;14.50;99.80;;;;;;4823803;29;20056;-88
2021/10/11 12:33:13;;;;;;;7.47;0.90;;;14.30;99.90;;;;;;4808151;29;20094;-88
2021/10/11 12:35:43;;;;;;;5.15;0.93;;;14.20;99.90;;;;;;4810464;29;20456;-87
2021/10/11 12:38:12;;;;;;;4.15;0.85;;;14.10;99.90;;;;;;4830301;29;21609;-89
2021/10/11 12:40:42;;;;;;;7.50;1.10;;;14.00;99.90;;;;;;4844223;29;21697;-87
2021/10/11 12:43:26;;;;;;;11.75;1.08;;;14.00;99.90;;;;;;4844491;29;20260;-87